sensor_id;sensor_type;location;lat;lon;timestamp;P1;durP1;ratioP1;P2;durP2;ratioP2
67503;SDS011;54351;49.108;1.502;2023-02-15T00:01:23;372.50;;;346.80;;
67503;SDS011;54351;49.108;1.502;2023-02-15T00:03:49;312.35;;;290.13;;
67503;SDS011;54351;49.108;1.502;2023-02-15T00:06:15;291.33;;;270.70;;
67503;SDS011;54351;49.108;1.502;2023-02-15T00:08:41;310.15;;;288.45;;
67503;SDS011;54351;49.108;1.502;2023-02-15T00:11:08;307.98;;;285.67;;
67503;SDS011;54351;49.108;1.502;2023-02-15T00:13:35;304.05;;;282.67;;
67503;SDS011;54351;49.108;1.502;2023-02-15T00:16:08;294.23;;;273.02;;
67503;SDS011;54351;49.108;1.502;2023-02-15T00:18:34;234.15;;;216.05;;
67503;SDS011;54351;49.108;1.502;2023-02-15T00:21:09;131.52;;;119.13;;
67503;SDS011;54351;49.108;1.502;2023-02-15T00:23:35;144.07;;;131.13;;
67503;SDS011;54351;49.108;1.502;2023-02-15T00:26:11;164.57;;;149.50;;
67503;SDS011;54351;49.108;1.502;2023-02-15T00:28:38;128.65;;;115.55;;
67503;SDS011;54351;49.108;1.502;2023-02-15T00:31:04;128.80;;;116.45;;
67503;SDS011;54351;49.108;1.502;2023-02-15T00:33:30;134.85;;;121.80;;
67503;SDS011;54351;49.108;1.502;2023-02-15T00:35:57;111.93;;;101.00;;
67503;SDS011;54351;49.108;1.502;2023-02-15T00:38:23;98.10;;;87.90;;
67503;SDS011;54351;49.108;1.502;2023-02-15T00:40:53;114.13;;;103.03;;
67503;SDS011;54351;49.108;1.502;2023-02-15T00:43:19;114.07;;;102.25;;
67503;SDS011;54351;49.108;1.502;2023-02-15T00:45:45;106.85;;;95.82;;
67503;SDS011;54351;49.108;1.502;2023-02-15T00:48:11;112.30;;;100.80;;
67503;SDS011;54351;49.108;1.502;2023-02-15T00:50:38;116.28;;;104.63;;
67503;SDS011;54351;49.108;1.502;2023-02-15T00:53:04;98.13;;;86.97;;
67503;SDS011;54351;49.108;1.502;2023-02-15T00:55:30;104.70;;;93.45;;
67503;SDS011;54351;49.108;1.502;2023-02-15T00:57:56;116.65;;;105.65;;
67503;SDS011;54351;49.108;1.502;2023-02-15T01:00:22;128.45;;;116.35;;
67503;SDS011;54351;49.108;1.502;2023-02-15T01:02:48;124.15;;;111.95;;
67503;SDS011;54351;49.108;1.502;2023-02-15T01:05:14;104.38;;;93.78;;
67503;SDS011;54351;49.108;1.502;2023-02-15T01:07:40;129.02;;;116.43;;
67503;SDS011;54351;49.108;1.502;2023-02-15T01:10:06;105.95;;;94.38;;
67503;SDS011;54351;49.108;1.502;2023-02-15T01:12:33;85.78;;;71.72;;
67503;SDS011;54351;49.108;1.502;2023-02-15T01:14:59;98.70;;;85.18;;
67503;SDS011;54351;49.108;1.502;2023-02-15T01:17:25;99.30;;;88.95;;
67503;SDS011;54351;49.108;1.502;2023-02-15T01:19:51;133.30;;;120.97;;
67503;SDS011;54351;49.108;1.502;2023-02-15T01:22:18;185.15;;;168.93;;
67503;SDS011;54351;49.108;1.502;2023-02-15T01:24:44;194.48;;;178.48;;
67503;SDS011;54351;49.108;1.502;2023-02-15T01:27:10;183.60;;;168.93;;
67503;SDS011;54351;49.108;1.502;2023-02-15T01:29:36;156.07;;;143.02;;
67503;SDS011;54351;49.108;1.502;2023-02-15T01:32:02;138.55;;;126.35;;
67503;SDS011;54351;49.108;1.502;2023-02-15T01:34:29;122.13;;;110.18;;
67503;SDS011;54351;49.108;1.502;2023-02-15T01:36:55;132.52;;;120.45;;
67503;SDS011;54351;49.108;1.502;2023-02-15T01:39:21;111.72;;;100.10;;
67503;SDS011;54351;49.108;1.502;2023-02-15T01:41:47;110.00;;;99.35;;
67503;SDS011;54351;49.108;1.502;2023-02-15T01:47:07;171.90;;;157.43;;
67503;SDS011;54351;49.108;1.502;2023-02-15T01:49:35;151.90;;;138.73;;
67503;SDS011;54351;49.108;1.502;2023-02-15T01:52:01;159.50;;;144.27;;
67503;SDS011;54351;49.108;1.502;2023-02-15T01:54:29;137.93;;;125.45;;
67503;SDS011;54351;49.108;1.502;2023-02-15T01:56:56;151.65;;;137.70;;
67503;SDS011;54351;49.108;1.502;2023-02-15T01:59:23;171.60;;;156.55;;
67503;SDS011;54351;49.108;1.502;2023-02-15T02:01:51;205.73;;;188.55;;
67503;SDS011;54351;49.108;1.502;2023-02-15T02:04:20;203.45;;;186.55;;
67503;SDS011;54351;49.108;1.502;2023-02-15T02:06:48;159.88;;;145.68;;
67503;SDS011;54351;49.108;1.502;2023-02-15T02:09:15;175.65;;;159.52;;
67503;SDS011;54351;49.108;1.502;2023-02-15T02:11:42;170.88;;;156.18;;
67503;SDS011;54351;49.108;1.502;2023-02-15T02:14:10;147.57;;;134.88;;
67503;SDS011;54351;49.108;1.502;2023-02-15T02:32:18;192.57;;;176.07;;
67503;SDS011;54351;49.108;1.502;2023-02-15T02:37:48;205.88;;;189.25;;
67503;SDS011;54351;49.108;1.502;2023-02-15T02:49:59;303.75;;;280.00;;
67503;SDS011;54351;49.108;1.502;2023-02-15T02:57:23;229.18;;;210.82;;
67503;SDS011;54351;49.108;1.502;2023-02-15T02:59:49;238.48;;;218.88;;
67503;SDS011;54351;49.108;1.502;2023-02-15T03:02:21;244.18;;;224.55;;
67503;SDS011;54351;49.108;1.502;2023-02-15T03:04:48;235.30;;;216.35;;
67503;SDS011;54351;49.108;1.502;2023-02-15T03:07:23;260.10;;;239.57;;
67503;SDS011;54351;49.108;1.502;2023-02-15T03:09:51;253.35;;;233.50;;
67503;SDS011;54351;49.108;1.502;2023-02-15T03:12:21;325.38;;;299.75;;
67503;SDS011;54351;49.108;1.502;2023-02-15T03:15:33;257.80;;;237.95;;
67503;SDS011;54351;49.108;1.502;2023-02-15T03:17:40;251.00;;;231.20;;
67503;SDS011;54351;49.108;1.502;2023-02-15T03:20:08;257.48;;;237.43;;
67503;SDS011;54351;49.108;1.502;2023-02-15T03:22:36;249.77;;;229.90;;
67503;SDS011;54351;49.108;1.502;2023-02-15T03:25:25;249.10;;;229.75;;
67503;SDS011;54351;49.108;1.502;2023-02-15T03:27:50;240.02;;;221.52;;
67503;SDS011;54351;49.108;1.502;2023-02-15T03:30:18;249.60;;;230.68;;
67503;SDS011;54351;49.108;1.502;2023-02-15T03:32:46;230.15;;;212.45;;
67503;SDS011;54351;49.108;1.502;2023-02-15T03:35:13;262.73;;;243.18;;
67503;SDS011;54351;49.108;1.502;2023-02-15T03:37:47;250.52;;;232.00;;
67503;SDS011;54351;49.108;1.502;2023-02-15T03:40:16;252.65;;;231.63;;
67503;SDS011;54351;49.108;1.502;2023-02-15T03:43:13;278.85;;;257.27;;
67503;SDS011;54351;49.108;1.502;2023-02-15T03:45:40;356.67;;;328.70;;
67503;SDS011;54351;49.108;1.502;2023-02-15T03:48:20;231.85;;;212.85;;
67503;SDS011;54351;49.108;1.502;2023-02-15T03:50:47;309.88;;;286.20;;
67503;SDS011;54351;49.108;1.502;2023-02-15T03:53:32;290.90;;;267.90;;
67503;SDS011;54351;49.108;1.502;2023-02-15T03:55:58;332.42;;;306.88;;
67503;SDS011;54351;49.108;1.502;2023-02-15T03:58:24;262.77;;;242.25;;
67503;SDS011;54351;49.108;1.502;2023-02-15T04:01:11;301.55;;;277.70;;
67503;SDS011;54351;49.108;1.502;2023-02-15T04:04:00;234.95;;;217.00;;
67503;SDS011;54351;49.108;1.502;2023-02-15T04:06:27;243.63;;;224.80;;
67503;SDS011;54351;49.108;1.502;2023-02-15T04:08:53;239.57;;;220.82;;
67503;SDS011;54351;49.108;1.502;2023-02-15T04:11:37;267.98;;;247.82;;
67503;SDS011;54351;49.108;1.502;2023-02-15T04:14:03;233.07;;;214.93;;
67503;SDS011;54351;49.108;1.502;2023-02-15T04:16:49;220.30;;;202.77;;
67503;SDS011;54351;49.108;1.502;2023-02-15T04:19:15;243.07;;;224.07;;
67503;SDS011;54351;49.108;1.502;2023-02-15T04:22:00;223.27;;;204.70;;
67503;SDS011;54351;49.108;1.502;2023-02-15T04:24:44;251.57;;;231.82;;
67503;SDS011;54351;49.108;1.502;2023-02-15T04:27:29;223.18;;;205.80;;
67503;SDS011;54351;49.108;1.502;2023-02-15T04:29:55;308.38;;;283.85;;
67503;SDS011;54351;49.108;1.502;2023-02-15T04:32:21;272.05;;;249.90;;
67503;SDS011;54351;49.108;1.502;2023-02-15T04:34:47;342.30;;;315.77;;
67503;SDS011;54351;49.108;1.502;2023-02-15T04:37:13;262.00;;;241.13;;
67503;SDS011;54351;49.108;1.502;2023-02-15T04:39:39;274.08;;;252.77;;
67503;SDS011;54351;49.108;1.502;2023-02-15T04:42:05;231.32;;;212.60;;
67503;SDS011;54351;49.108;1.502;2023-02-15T04:44:31;259.58;;;238.02;;
67503;SDS011;54351;49.108;1.502;2023-02-15T04:46:57;239.07;;;219.55;;
67503;SDS011;54351;49.108;1.502;2023-02-15T04:49:23;249.32;;;228.32;;
67503;SDS011;54351;49.108;1.502;2023-02-15T04:51:49;281.27;;;258.50;;
67503;SDS011;54351;49.108;1.502;2023-02-15T04:54:15;306.17;;;282.30;;
67503;SDS011;54351;49.108;1.502;2023-02-15T04:56:42;268.88;;;247.70;;
67503;SDS011;54351;49.108;1.502;2023-02-15T04:59:11;240.75;;;220.13;;
67503;SDS011;54351;49.108;1.502;2023-02-15T05:01:38;332.85;;;307.02;;
67503;SDS011;54351;49.108;1.502;2023-02-15T05:04:04;334.75;;;308.35;;
67503;SDS011;54351;49.108;1.502;2023-02-15T05:06:30;308.55;;;283.95;;
67503;SDS011;54351;49.108;1.502;2023-02-15T05:08:56;285.42;;;262.70;;
67503;SDS011;54351;49.108;1.502;2023-02-15T05:11:24;390.85;;;361.65;;
67503;SDS011;54351;49.108;1.502;2023-02-15T05:13:50;421.83;;;391.17;;
67503;SDS011;54351;49.108;1.502;2023-02-15T05:16:16;385.63;;;355.35;;
67503;SDS011;54351;49.108;1.502;2023-02-15T05:18:42;446.15;;;413.50;;
67503;SDS011;54351;49.108;1.502;2023-02-15T05:21:08;423.92;;;392.25;;
67503;SDS011;54351;49.108;1.502;2023-02-15T05:23:35;422.02;;;390.85;;
67503;SDS011;54351;49.108;1.502;2023-02-15T05:26:01;335.10;;;308.55;;
67503;SDS011;54351;49.108;1.502;2023-02-15T05:28:46;337.45;;;311.08;;
67503;SDS011;54351;49.108;1.502;2023-02-15T05:31:13;357.52;;;329.67;;
67503;SDS011;54351;49.108;1.502;2023-02-15T05:33:40;332.25;;;307.38;;
67503;SDS011;54351;49.108;1.502;2023-02-15T05:36:06;402.55;;;372.77;;
67503;SDS011;54351;49.108;1.502;2023-02-15T05:38:33;408.85;;;378.13;;
67503;SDS011;54351;49.108;1.502;2023-02-15T05:40:59;386.77;;;358.05;;
67503;SDS011;54351;49.108;1.502;2023-02-15T05:43:25;403.60;;;373.60;;
67503;SDS011;54351;49.108;1.502;2023-02-15T05:45:52;417.95;;;387.02;;
67503;SDS011;54351;49.108;1.502;2023-02-15T05:48:19;420.45;;;388.98;;
67503;SDS011;54351;49.108;1.502;2023-02-15T05:50:45;443.67;;;410.55;;
67503;SDS011;54351;49.108;1.502;2023-02-15T05:53:12;376.77;;;348.20;;
67503;SDS011;54351;49.108;1.502;2023-02-15T05:55:38;472.08;;;437.15;;
67503;SDS011;54351;49.108;1.502;2023-02-15T05:58:05;454.10;;;420.02;;
67503;SDS011;54351;49.108;1.502;2023-02-15T06:00:31;434.27;;;401.13;;
67503;SDS011;54351;49.108;1.502;2023-02-15T06:02:57;376.15;;;347.95;;
67503;SDS011;54351;49.108;1.502;2023-02-15T06:05:23;438.02;;;405.88;;
67503;SDS011;54351;49.108;1.502;2023-02-15T06:07:49;457.02;;;423.92;;
67503;SDS011;54351;49.108;1.502;2023-02-15T06:10:15;473.85;;;439.58;;
67503;SDS011;54351;49.108;1.502;2023-02-15T06:12:41;442.58;;;409.58;;
67503;SDS011;54351;49.108;1.502;2023-02-15T06:15:07;443.70;;;410.70;;
67503;SDS011;54351;49.108;1.502;2023-02-15T06:17:33;470.30;;;435.13;;
67503;SDS011;54351;49.108;1.502;2023-02-15T06:19:59;331.73;;;306.15;;
67503;SDS011;54351;49.108;1.502;2023-02-15T06:22:25;435.05;;;402.95;;
67503;SDS011;54351;49.108;1.502;2023-02-15T06:24:52;442.77;;;410.40;;
67503;SDS011;54351;49.108;1.502;2023-02-15T06:27:18;509.98;;;472.98;;
67503;SDS011;54351;49.108;1.502;2023-02-15T06:29:44;422.00;;;390.20;;
67503;SDS011;54351;49.108;1.502;2023-02-15T06:32:10;436.25;;;403.63;;
67503;SDS011;54351;49.108;1.502;2023-02-15T06:34:36;428.52;;;396.33;;
67503;SDS011;54351;49.108;1.502;2023-02-15T06:37:02;415.70;;;384.60;;
67503;SDS011;54351;49.108;1.502;2023-02-15T06:39:28;453.35;;;419.05;;
67503;SDS011;54351;49.108;1.502;2023-02-15T06:41:54;427.75;;;395.55;;
67503;SDS011;54351;49.108;1.502;2023-02-15T06:44:20;421.33;;;389.42;;
67503;SDS011;54351;49.108;1.502;2023-02-15T06:46:46;438.58;;;405.70;;
67503;SDS011;54351;49.108;1.502;2023-02-15T06:49:12;392.42;;;362.05;;
67503;SDS011;54351;49.108;1.502;2023-02-15T06:51:38;324.02;;;298.08;;
67503;SDS011;54351;49.108;1.502;2023-02-15T06:54:04;332.10;;;305.85;;
67503;SDS011;54351;49.108;1.502;2023-02-15T06:56:30;391.65;;;362.00;;
67503;SDS011;54351;49.108;1.502;2023-02-15T06:58:56;358.58;;;330.77;;
67503;SDS011;54351;49.108;1.502;2023-02-15T07:01:23;412.67;;;381.40;;
67503;SDS011;54351;49.108;1.502;2023-02-15T07:03:49;392.25;;;361.83;;
67503;SDS011;54351;49.108;1.502;2023-02-15T07:06:15;313.05;;;287.25;;
67503;SDS011;54351;49.108;1.502;2023-02-15T07:08:41;263.55;;;241.98;;
67503;SDS011;54351;49.108;1.502;2023-02-15T07:11:07;364.67;;;337.00;;
67503;SDS011;54351;49.108;1.502;2023-02-15T07:13:52;316.70;;;291.98;;
67503;SDS011;54351;49.108;1.502;2023-02-15T07:16:18;225.23;;;205.77;;
67503;SDS011;54351;49.108;1.502;2023-02-15T07:18:44;247.52;;;227.23;;
67503;SDS011;54351;49.108;1.502;2023-02-15T07:21:10;269.40;;;247.30;;
67503;SDS011;54351;49.108;1.502;2023-02-15T07:23:37;301.90;;;278.50;;
67503;SDS011;54351;49.108;1.502;2023-02-15T07:26:04;347.00;;;320.52;;
67503;SDS011;54351;49.108;1.502;2023-02-15T07:28:30;367.15;;;339.48;;
67503;SDS011;54351;49.108;1.502;2023-02-15T07:30:56;390.50;;;360.65;;
67503;SDS011;54351;49.108;1.502;2023-02-15T07:33:23;403.90;;;373.48;;
67503;SDS011;54351;49.108;1.502;2023-02-15T07:35:53;430.40;;;398.08;;
67503;SDS011;54351;49.108;1.502;2023-02-15T07:38:19;373.45;;;345.15;;
67503;SDS011;54351;49.108;1.502;2023-02-15T07:40:45;327.60;;;302.83;;
67503;SDS011;54351;49.108;1.502;2023-02-15T07:43:12;319.83;;;295.27;;
67503;SDS011;54351;49.108;1.502;2023-02-15T07:45:38;293.80;;;270.48;;
67503;SDS011;54351;49.108;1.502;2023-02-15T07:48:05;308.85;;;285.08;;
67503;SDS011;54351;49.108;1.502;2023-02-15T07:50:31;379.17;;;350.55;;
67503;SDS011;54351;49.108;1.502;2023-02-15T07:52:57;312.23;;;287.92;;
67503;SDS011;54351;49.108;1.502;2023-02-15T07:55:24;285.95;;;263.42;;
67503;SDS011;54351;49.108;1.502;2023-02-15T07:57:50;311.08;;;286.25;;
67503;SDS011;54351;49.108;1.502;2023-02-15T08:00:19;311.75;;;287.73;;
67503;SDS011;54351;49.108;1.502;2023-02-15T08:02:49;287.83;;;263.90;;
67503;SDS011;54351;49.108;1.502;2023-02-15T08:05:38;259.25;;;237.15;;
67503;SDS011;54351;49.108;1.502;2023-02-15T08:08:05;260.75;;;240.32;;
67503;SDS011;54351;49.108;1.502;2023-02-15T08:10:32;298.17;;;275.35;;
67503;SDS011;54351;49.108;1.502;2023-02-15T08:13:16;293.23;;;269.38;;
67503;SDS011;54351;49.108;1.502;2023-02-15T08:15:50;291.73;;;269.15;;
67503;SDS011;54351;49.108;1.502;2023-02-15T08:18:16;286.55;;;263.85;;
67503;SDS011;54351;49.108;1.502;2023-02-15T08:20:42;282.67;;;259.92;;
67503;SDS011;54351;49.108;1.502;2023-02-15T08:23:08;287.55;;;264.10;;
67503;SDS011;54351;49.108;1.502;2023-02-15T08:25:34;314.55;;;289.50;;
67503;SDS011;54351;49.108;1.502;2023-02-15T08:28:00;298.30;;;273.75;;
67503;SDS011;54351;49.108;1.502;2023-02-15T08:30:26;300.23;;;275.92;;
67503;SDS011;54351;49.108;1.502;2023-02-15T08:32:52;295.88;;;272.30;;
67503;SDS011;54351;49.108;1.502;2023-02-15T08:35:18;300.40;;;275.30;;
67503;SDS011;54351;49.108;1.502;2023-02-15T08:37:45;304.20;;;278.45;;
67503;SDS011;54351;49.108;1.502;2023-02-15T08:40:11;244.18;;;220.88;;
67503;SDS011;54351;49.108;1.502;2023-02-15T08:42:38;316.33;;;286.60;;
67503;SDS011;54351;49.108;1.502;2023-02-15T08:45:04;320.27;;;290.05;;
67503;SDS011;54351;49.108;1.502;2023-02-15T08:47:30;261.13;;;235.35;;
67503;SDS011;54351;49.108;1.502;2023-02-15T08:49:57;274.80;;;247.95;;
67503;SDS011;54351;49.108;1.502;2023-02-15T08:52:23;205.93;;;183.13;;
67503;SDS011;54351;49.108;1.502;2023-02-15T08:54:49;232.57;;;177.88;;
67503;SDS011;54351;49.108;1.502;2023-02-15T08:57:15;220.35;;;184.77;;
67503;SDS011;54351;49.108;1.502;2023-02-15T08:59:41;244.77;;;220.23;;
67503;SDS011;54351;49.108;1.502;2023-02-15T09:02:08;238.40;;;213.52;;
67503;SDS011;54351;49.108;1.502;2023-02-15T09:04:35;217.93;;;177.48;;
67503;SDS011;54351;49.108;1.502;2023-02-15T09:07:01;249.30;;;206.55;;
67503;SDS011;54351;49.108;1.502;2023-02-15T09:09:29;296.38;;;260.60;;
67503;SDS011;54351;49.108;1.502;2023-02-15T09:11:57;418.60;;;376.67;;
67503;SDS011;54351;49.108;1.502;2023-02-15T09:14:23;451.65;;;407.63;;
67503;SDS011;54351;49.108;1.502;2023-02-15T09:16:51;470.67;;;426.30;;
67503;SDS011;54351;49.108;1.502;2023-02-15T09:19:18;452.98;;;411.67;;
67503;SDS011;54351;49.108;1.502;2023-02-15T09:21:44;441.30;;;399.88;;
67503;SDS011;54351;49.108;1.502;2023-02-15T09:24:11;491.08;;;448.00;;
67503;SDS011;54351;49.108;1.502;2023-02-15T09:26:39;370.08;;;337.30;;
67503;SDS011;54351;49.108;1.502;2023-02-15T09:29:05;266.23;;;240.05;;
67503;SDS011;54351;49.108;1.502;2023-02-15T09:31:32;248.55;;;223.32;;
67503;SDS011;54351;49.108;1.502;2023-02-15T09:34:00;221.23;;;199.27;;
67503;SDS011;54351;49.108;1.502;2023-02-15T09:36:28;349.10;;;320.73;;
67503;SDS011;54351;49.108;1.502;2023-02-15T09:49:29;505.38;;;463.17;;
67503;SDS011;54351;49.108;1.502;2023-02-15T09:52:15;490.05;;;448.55;;
67503;SDS011;54351;49.108;1.502;2023-02-15T10:00:02;452.90;;;413.52;;
67503;SDS011;54351;49.108;1.502;2023-02-15T10:05:05;446.67;;;408.48;;
67503;SDS011;54351;49.108;1.502;2023-02-15T10:10:18;493.27;;;451.52;;
67503;SDS011;54351;49.108;1.502;2023-02-15T10:12:57;400.70;;;368.55;;
67503;SDS011;54351;49.108;1.502;2023-02-15T10:15:32;307.20;;;282.55;;
67503;SDS011;54351;49.108;1.502;2023-02-15T10:28:31;298.20;;;275.65;;
67503;SDS011;54351;49.108;1.502;2023-02-15T10:31:12;184.63;;;168.98;;
67503;SDS011;54351;49.108;1.502;2023-02-15T10:33:43;264.30;;;244.18;;
67503;SDS011;54351;49.108;1.502;2023-02-15T10:38:40;280.35;;;258.52;;
67503;SDS011;54351;49.108;1.502;2023-02-15T10:44:02;429.42;;;394.38;;
67503;SDS011;54351;49.108;1.502;2023-02-15T10:46:42;359.00;;;330.35;;
67503;SDS011;54351;49.108;1.502;2023-02-15T10:51:53;523.50;;;479.02;;
67503;SDS011;54351;49.108;1.502;2023-02-15T10:59:39;866.08;;;781.60;;
67503;SDS011;54351;49.108;1.502;2023-02-15T11:02:54;811.95;;;733.00;;
67503;SDS011;54351;49.108;1.502;2023-02-15T11:07:32;846.13;;;767.13;;
67503;SDS011;54351;49.108;1.502;2023-02-15T11:10:07;543.72;;;497.17;;
67503;SDS011;54351;49.108;1.502;2023-02-15T11:12:39;433.73;;;398.75;;
67503;SDS011;54351;49.108;1.502;2023-02-15T11:17:43;506.52;;;467.58;;
67503;SDS011;54351;49.108;1.502;2023-02-15T11:22:36;488.40;;;450.88;;
67503;SDS011;54351;49.108;1.502;2023-02-15T11:25:04;631.85;;;584.28;;
67503;SDS011;54351;49.108;1.502;2023-02-15T11:27:39;660.78;;;611.63;;
67503;SDS011;54351;49.108;1.502;2023-02-15T11:32:38;539.65;;;500.20;;
67503;SDS011;54351;49.108;1.502;2023-02-15T11:40:28;407.45;;;375.10;;
67503;SDS011;54351;49.108;1.502;2023-02-15T11:43:00;422.35;;;388.45;;
67503;SDS011;54351;49.108;1.502;2023-02-15T11:47:53;405.77;;;369.33;;
67503;SDS011;54351;49.108;1.502;2023-02-15T11:50:21;733.17;;;664.85;;
67503;SDS011;54351;49.108;1.502;2023-02-15T11:52:49;601.90;;;545.88;;
67503;SDS011;54351;49.108;1.502;2023-02-15T11:55:18;789.13;;;718.70;;
67503;SDS011;54351;49.108;1.502;2023-02-15T11:57:46;598.22;;;542.78;;
67503;SDS011;54351;49.108;1.502;2023-02-15T12:00:38;604.30;;;549.17;;
67503;SDS011;54351;49.108;1.502;2023-02-15T12:03:47;807.17;;;737.45;;
67503;SDS011;54351;49.108;1.502;2023-02-15T12:05:57;618.70;;;563.92;;
67503;SDS011;54351;49.108;1.502;2023-02-15T12:08:23;717.33;;;656.10;;
67503;SDS011;54351;49.108;1.502;2023-02-15T12:10:58;742.00;;;681.05;;
67503;SDS011;54351;49.108;1.502;2023-02-15T12:13:26;754.78;;;695.40;;
67503;SDS011;54351;49.108;1.502;2023-02-15T12:15:53;755.30;;;695.72;;
67503;SDS011;54351;49.108;1.502;2023-02-15T12:18:38;696.42;;;641.92;;
67503;SDS011;54351;49.108;1.502;2023-02-15T12:21:15;607.00;;;559.70;;
67503;SDS011;54351;49.108;1.502;2023-02-15T12:23:46;476.08;;;436.63;;
67503;SDS011;54351;49.108;1.502;2023-02-15T12:26:13;496.17;;;454.10;;
67503;SDS011;54351;49.108;1.502;2023-02-15T12:28:42;429.48;;;394.05;;
67503;SDS011;54351;49.108;1.502;2023-02-15T12:33:49;465.85;;;428.55;;
67503;SDS011;54351;49.108;1.502;2023-02-15T12:38:42;462.15;;;424.52;;
67503;SDS011;54351;49.108;1.502;2023-02-15T12:41:22;384.98;;;353.58;;
67503;SDS011;54351;49.108;1.502;2023-02-15T12:44:03;368.25;;;339.27;;
67503;SDS011;54351;49.108;1.502;2023-02-15T12:46:29;348.45;;;321.13;;
67503;SDS011;54351;49.108;1.502;2023-02-15T12:49:06;454.23;;;417.75;;
67503;SDS011;54351;49.108;1.502;2023-02-15T12:54:17;446.33;;;409.20;;
67503;SDS011;54351;49.108;1.502;2023-02-15T12:56:43;394.10;;;362.85;;
67503;SDS011;54351;49.108;1.502;2023-02-15T12:59:12;428.60;;;395.20;;
67503;SDS011;54351;49.108;1.502;2023-02-15T13:01:40;520.95;;;481.58;;
67503;SDS011;54351;49.108;1.502;2023-02-15T13:04:24;475.83;;;439.75;;
67503;SDS011;54351;49.108;1.502;2023-02-15T13:06:51;469.00;;;433.90;;
67503;SDS011;54351;49.108;1.502;2023-02-15T13:09:25;544.08;;;503.95;;
67503;SDS011;54351;49.108;1.502;2023-02-15T13:11:54;460.92;;;425.60;;
67503;SDS011;54351;49.108;1.502;2023-02-15T13:14:22;559.45;;;516.80;;
67503;SDS011;54351;49.108;1.502;2023-02-15T13:16:52;572.50;;;528.75;;
67503;SDS011;54351;49.108;1.502;2023-02-15T13:19:20;614.40;;;568.97;;
67503;SDS011;54351;49.108;1.502;2023-02-15T13:21:49;505.70;;;466.83;;
67503;SDS011;54351;49.108;1.502;2023-02-15T13:26:52;364.85;;;340.67;;
67503;SDS011;54351;49.108;1.502;2023-02-15T13:29:36;378.92;;;353.65;;
67503;SDS011;54351;49.108;1.502;2023-02-15T13:32:12;474.23;;;440.45;;
67503;SDS011;54351;49.108;1.502;2023-02-15T13:34:41;455.38;;;423.55;;
67503;SDS011;54351;49.108;1.502;2023-02-15T13:42:17;354.63;;;330.98;;
67503;SDS011;54351;49.108;1.502;2023-02-15T13:47:48;271.55;;;253.68;;
67503;SDS011;54351;49.108;1.502;2023-02-15T13:50:20;195.75;;;182.82;;
67503;SDS011;54351;49.108;1.502;2023-02-15T13:52:56;225.93;;;211.48;;
67503;SDS011;54351;49.108;1.502;2023-02-15T14:00:38;176.77;;;164.98;;
67503;SDS011;54351;49.108;1.502;2023-02-15T14:08:23;177.68;;;166.55;;
67503;SDS011;54351;49.108;1.502;2023-02-15T14:10:56;136.38;;;126.88;;
67503;SDS011;54351;49.108;1.502;2023-02-15T14:15:54;106.63;;;98.35;;
67503;SDS011;54351;49.108;1.502;2023-02-15T14:31:28;98.28;;;91.47;;
67503;SDS011;54351;49.108;1.502;2023-02-15T14:36:21;100.25;;;93.13;;
67503;SDS011;54351;49.108;1.502;2023-02-15T14:39:16;80.88;;;74.88;;
67503;SDS011;54351;49.108;1.502;2023-02-15T14:41:56;99.10;;;92.32;;
67503;SDS011;54351;49.108;1.502;2023-02-15T14:44:41;80.95;;;74.70;;
67503;SDS011;54351;49.108;1.502;2023-02-15T14:49:43;134.88;;;125.70;;
67503;SDS011;54351;49.108;1.502;2023-02-15T14:52:10;113.82;;;106.03;;
67503;SDS011;54351;49.108;1.502;2023-02-15T15:02:18;114.78;;;106.45;;
67503;SDS011;54351;49.108;1.502;2023-02-15T15:07:28;96.00;;;88.90;;
67503;SDS011;54351;49.108;1.502;2023-02-15T15:10:04;129.05;;;119.97;;
67503;SDS011;54351;49.108;1.502;2023-02-15T15:12:41;155.93;;;145.63;;
67503;SDS011;54351;49.108;1.502;2023-02-15T15:15:09;123.35;;;114.75;;
67503;SDS011;54351;49.108;1.502;2023-02-15T15:22:38;74.88;;;69.25;;
67503;SDS011;54351;49.108;1.502;2023-02-15T15:25:09;73.97;;;68.50;;
67503;SDS011;54351;49.108;1.502;2023-02-15T15:30:02;69.57;;;64.75;;
67503;SDS011;54351;49.108;1.502;2023-02-15T15:32:29;79.45;;;74.00;;
67503;SDS011;54351;49.108;1.502;2023-02-15T15:37:50;66.53;;;61.55;;
67503;SDS011;54351;49.108;1.502;2023-02-15T15:42:57;82.32;;;76.70;;
67503;SDS011;54351;49.108;1.502;2023-02-15T15:48:05;60.58;;;56.22;;
67503;SDS011;54351;49.108;1.502;2023-02-15T15:50:38;64.43;;;59.67;;
67503;SDS011;54351;49.108;1.502;2023-02-15T15:53:05;62.00;;;57.63;;
67503;SDS011;54351;49.108;1.502;2023-02-15T15:55:32;54.15;;;50.22;;
67503;SDS011;54351;49.108;1.502;2023-02-15T15:58:00;59.63;;;55.22;;
67503;SDS011;54351;49.108;1.502;2023-02-15T16:03:00;60.05;;;55.75;;
67503;SDS011;54351;49.108;1.502;2023-02-15T16:05:26;58.83;;;54.60;;
67503;SDS011;54351;49.108;1.502;2023-02-15T16:07:52;56.65;;;52.58;;
67503;SDS011;54351;49.108;1.502;2023-02-15T16:10:22;67.80;;;63.03;;
67503;SDS011;54351;49.108;1.502;2023-02-15T16:12:49;57.35;;;52.97;;
67503;SDS011;54351;49.108;1.502;2023-02-15T16:15:19;60.13;;;55.95;;
67503;SDS011;54351;49.108;1.502;2023-02-15T16:17:49;63.92;;;59.53;;
67503;SDS011;54351;49.108;1.502;2023-02-15T16:20:20;62.05;;;57.47;;
67503;SDS011;54351;49.108;1.502;2023-02-15T16:22:46;79.75;;;73.72;;
67503;SDS011;54351;49.108;1.502;2023-02-15T16:27:40;56.30;;;51.65;;
67503;SDS011;54351;49.108;1.502;2023-02-15T16:30:27;44.53;;;41.13;;
67503;SDS011;54351;49.108;1.502;2023-02-15T16:33:03;36.78;;;33.83;;
67503;SDS011;54351;49.108;1.502;2023-02-15T16:35:29;33.55;;;30.52;;
67503;SDS011;54351;49.108;1.502;2023-02-15T16:37:56;35.50;;;32.58;;
67503;SDS011;54351;49.108;1.502;2023-02-15T16:42:51;35.38;;;32.13;;
67503;SDS011;54351;49.108;1.502;2023-02-15T16:45:19;34.20;;;31.42;;
67503;SDS011;54351;49.108;1.502;2023-02-15T16:47:49;53.08;;;48.95;;
67503;SDS011;54351;49.108;1.502;2023-02-15T16:50:20;51.20;;;47.33;;
67503;SDS011;54351;49.108;1.502;2023-02-15T16:55:21;94.80;;;88.38;;
67503;SDS011;54351;49.108;1.502;2023-02-15T16:57:47;138.82;;;129.95;;
67503;SDS011;54351;49.108;1.502;2023-02-15T17:00:25;188.63;;;176.32;;
67503;SDS011;54351;49.108;1.502;2023-02-15T17:02:58;224.93;;;210.40;;
67503;SDS011;54351;49.108;1.502;2023-02-15T17:05:29;268.52;;;250.85;;
67503;SDS011;54351;49.108;1.502;2023-02-15T17:10:30;378.40;;;351.52;;
67503;SDS011;54351;49.108;1.502;2023-02-15T17:13:01;413.98;;;383.42;;
67503;SDS011;54351;49.108;1.502;2023-02-15T17:17:55;595.65;;;552.00;;
67503;SDS011;54351;49.108;1.502;2023-02-15T17:20:22;632.00;;;584.22;;